sensor_id;sensor_type;location;lat;lon;timestamp;P1;durP1;ratioP1;P2;durP2;ratioP2
48526;SDS011;34317;51.660;5.824;2024-02-21T00:01:27;21.95;;;8.10;;
48526;SDS011;34317;51.660;5.824;2024-02-21T00:03:55;21.42;;;8.10;;
48526;SDS011;34317;51.660;5.824;2024-02-21T00:06:22;20.52;;;8.57;;
48526;SDS011;34317;51.660;5.824;2024-02-21T00:08:50;18.67;;;7.53;;
48526;SDS011;34317;51.660;5.824;2024-02-21T00:11:18;20.35;;;7.90;;
48526;SDS011;34317;51.660;5.824;2024-02-21T00:13:48;21.27;;;7.90;;
48526;SDS011;34317;51.660;5.824;2024-02-21T00:16:16;20.48;;;8.07;;
48526;SDS011;34317;51.660;5.824;2024-02-21T00:18:44;16.98;;;7.57;;
48526;SDS011;34317;51.660;5.824;2024-02-21T00:21:11;17.50;;;7.38;;
48526;SDS011;34317;51.660;5.824;2024-02-21T00:23:48;20.20;;;7.38;;
48526;SDS011;34317;51.660;5.824;2024-02-21T00:26:18;21.35;;;8.18;;
48526;SDS011;34317;51.660;5.824;2024-02-21T00:28:45;21.23;;;7.75;;
48526;SDS011;34317;51.660;5.824;2024-02-21T00:31:13;17.13;;;7.75;;
48526;SDS011;34317;51.660;5.824;2024-02-21T00:33:40;16.50;;;7.80;;
48526;SDS011;34317;51.660;5.824;2024-02-21T00:36:08;19.25;;;7.28;;
48526;SDS011;34317;51.660;5.824;2024-02-21T00:38:37;16.02;;;7.13;;
48526;SDS011;34317;51.660;5.824;2024-02-21T00:41:05;18.77;;;7.40;;
48526;SDS011;34317;51.660;5.824;2024-02-21T00:43:32;17.42;;;7.68;;
48526;SDS011;34317;51.660;5.824;2024-02-21T00:46:00;16.58;;;7.28;;
48526;SDS011;34317;51.660;5.824;2024-02-21T00:48:27;17.25;;;7.88;;
48526;SDS011;34317;51.660;5.824;2024-02-21T00:50:55;19.38;;;7.63;;
48526;SDS011;34317;51.660;5.824;2024-02-21T00:53:23;17.00;;;7.80;;
48526;SDS011;34317;51.660;5.824;2024-02-21T00:55:50;20.15;;;7.68;;
48526;SDS011;34317;51.660;5.824;2024-02-21T00:58:18;17.90;;;7.50;;
48526;SDS011;34317;51.660;5.824;2024-02-21T01:00:46;19.40;;;7.53;;
48526;SDS011;34317;51.660;5.824;2024-02-21T01:03:14;20.67;;;7.60;;
48526;SDS011;34317;51.660;5.824;2024-02-21T01:05:41;16.75;;;7.55;;
48526;SDS011;34317;51.660;5.824;2024-02-21T01:08:09;16.92;;;6.97;;
48526;SDS011;34317;51.660;5.824;2024-02-21T01:10:36;19.73;;;7.38;;
48526;SDS011;34317;51.660;5.824;2024-02-21T01:13:04;16.20;;;7.18;;
48526;SDS011;34317;51.660;5.824;2024-02-21T01:15:32;21.55;;;7.63;;
48526;SDS011;34317;51.660;5.824;2024-02-21T01:18:00;21.33;;;7.78;;
48526;SDS011;34317;51.660;5.824;2024-02-21T01:20:28;18.77;;;7.57;;
48526;SDS011;34317;51.660;5.824;2024-02-21T01:22:56;15.32;;;7.57;;
48526;SDS011;34317;51.660;5.824;2024-02-21T01:25:24;20.42;;;7.30;;
48526;SDS011;34317;51.660;5.824;2024-02-21T01:27:51;17.65;;;7.25;;
48526;SDS011;34317;51.660;5.824;2024-02-21T01:30:18;16.48;;;7.18;;
48526;SDS011;34317;51.660;5.824;2024-02-21T01:32:46;19.02;;;7.15;;
48526;SDS011;34317;51.660;5.824;2024-02-21T01:35:13;16.98;;;7.45;;
48526;SDS011;34317;51.660;5.824;2024-02-21T01:37:41;19.15;;;7.65;;
48526;SDS011;34317;51.660;5.824;2024-02-21T01:40:09;16.42;;;7.00;;
48526;SDS011;34317;51.660;5.824;2024-02-21T01:42:38;17.52;;;7.18;;
48526;SDS011;34317;51.660;5.824;2024-02-21T01:45:07;15.75;;;6.68;;
48526;SDS011;34317;51.660;5.824;2024-02-21T01:47:36;19.10;;;7.18;;
48526;SDS011;34317;51.660;5.824;2024-02-21T01:50:04;15.13;;;6.72;;
48526;SDS011;34317;51.660;5.824;2024-02-21T01:52:32;17.42;;;7.00;;
48526;SDS011;34317;51.660;5.824;2024-02-21T01:55:02;19.13;;;6.80;;
48526;SDS011;34317;51.660;5.824;2024-02-21T01:57:32;15.65;;;6.93;;
48526;SDS011;34317;51.660;5.824;2024-02-21T02:00:00;15.07;;;7.03;;
48526;SDS011;34317;51.660;5.824;2024-02-21T02:02:36;16.33;;;6.72;;
48526;SDS011;34317;51.660;5.824;2024-02-21T02:05:06;17.25;;;6.95;;
48526;SDS011;34317;51.660;5.824;2024-02-21T02:07:36;14.68;;;6.55;;
48526;SDS011;34317;51.660;5.824;2024-02-21T02:10:04;13.73;;;6.35;;
48526;SDS011;34317;51.660;5.824;2024-02-21T02:12:33;16.17;;;6.30;;
48526;SDS011;34317;51.660;5.824;2024-02-21T02:15:02;18.23;;;6.65;;
48526;SDS011;34317;51.660;5.824;2024-02-21T02:17:34;16.10;;;5.85;;
48526;SDS011;34317;51.660;5.824;2024-02-21T02:20:03;18.25;;;6.05;;
48526;SDS011;34317;51.660;5.824;2024-02-21T02:22:32;14.80;;;5.70;;
48526;SDS011;34317;51.660;5.824;2024-02-21T02:25:03;14.02;;;5.68;;
48526;SDS011;34317;51.660;5.824;2024-02-21T02:27:32;13.70;;;4.82;;
48526;SDS011;34317;51.660;5.824;2024-02-21T02:30:00;13.45;;;5.60;;
48526;SDS011;34317;51.660;5.824;2024-02-21T02:32:28;12.30;;;5.53;;
48526;SDS011;34317;51.660;5.824;2024-02-21T02:34:56;13.73;;;5.43;;
48526;SDS011;34317;51.660;5.824;2024-02-21T02:37:25;17.63;;;6.00;;
48526;SDS011;34317;51.660;5.824;2024-02-21T02:39:53;11.52;;;4.90;;
48526;SDS011;34317;51.660;5.824;2024-02-21T02:42:21;16.98;;;5.85;;
48526;SDS011;34317;51.660;5.824;2024-02-21T02:44:49;13.95;;;5.13;;
48526;SDS011;34317;51.660;5.824;2024-02-21T02:47:16;13.25;;;5.28;;
48526;SDS011;34317;51.660;5.824;2024-02-21T02:49:44;13.70;;;5.22;;
48526;SDS011;34317;51.660;5.824;2024-02-21T02:52:12;11.35;;;4.90;;
48526;SDS011;34317;51.660;5.824;2024-02-21T02:54:40;20.33;;;4.97;;
48526;SDS011;34317;51.660;5.824;2024-02-21T02:57:08;13.45;;;4.35;;
48526;SDS011;34317;51.660;5.824;2024-02-21T02:59:35;12.70;;;4.85;;
48526;SDS011;34317;51.660;5.824;2024-02-21T03:02:03;12.82;;;4.53;;
48526;SDS011;34317;51.660;5.824;2024-02-21T03:04:32;11.02;;;4.60;;
48526;SDS011;34317;51.660;5.824;2024-02-21T03:07:02;10.98;;;4.53;;
48526;SDS011;34317;51.660;5.824;2024-02-21T03:09:30;11.63;;;4.80;;
48526;SDS011;34317;51.660;5.824;2024-02-21T03:11:58;10.90;;;4.72;;
48526;SDS011;34317;51.660;5.824;2024-02-21T03:14:30;11.60;;;4.43;;
48526;SDS011;34317;51.660;5.824;2024-02-21T03:16:58;11.10;;;4.53;;
48526;SDS011;34317;51.660;5.824;2024-02-21T03:19:27;11.57;;;4.68;;
48526;SDS011;34317;51.660;5.824;2024-02-21T03:21:56;10.38;;;4.50;;
48526;SDS011;34317;51.660;5.824;2024-02-21T03:24:25;12.98;;;4.68;;
48526;SDS011;34317;51.660;5.824;2024-02-21T03:26:54;10.23;;;4.57;;
48526;SDS011;34317;51.660;5.824;2024-02-21T03:29:21;13.57;;;4.22;;
48526;SDS011;34317;51.660;5.824;2024-02-21T03:31:50;10.48;;;4.82;;
48526;SDS011;34317;51.660;5.824;2024-02-21T03:34:17;9.88;;;4.10;;
48526;SDS011;34317;51.660;5.824;2024-02-21T03:36:45;11.57;;;4.53;;
48526;SDS011;34317;51.660;5.824;2024-02-21T03:39:14;11.93;;;4.50;;
48526;SDS011;34317;51.660;5.824;2024-02-21T03:41:42;11.82;;;4.90;;
48526;SDS011;34317;51.660;5.824;2024-02-21T03:44:10;10.20;;;4.22;;
48526;SDS011;34317;51.660;5.824;2024-02-21T03:46:37;10.73;;;4.90;;
48526;SDS011;34317;51.660;5.824;2024-02-21T03:49:05;8.65;;;4.35;;
48526;SDS011;34317;51.660;5.824;2024-02-21T03:51:32;9.20;;;4.70;;
48526;SDS011;34317;51.660;5.824;2024-02-21T03:54:00;11.57;;;4.82;;
48526;SDS011;34317;51.660;5.824;2024-02-21T03:56:27;10.00;;;4.38;;
48526;SDS011;34317;51.660;5.824;2024-02-21T03:58:54;12.68;;;4.57;;
48526;SDS011;34317;51.660;5.824;2024-02-21T04:01:22;11.70;;;4.60;;
48526;SDS011;34317;51.660;5.824;2024-02-21T04:03:49;10.15;;;4.68;;
48526;SDS011;34317;51.660;5.824;2024-02-21T04:06:17;11.98;;;4.63;;
48526;SDS011;34317;51.660;5.824;2024-02-21T04:08:44;11.68;;;4.32;;
48526;SDS011;34317;51.660;5.824;2024-02-21T04:11:12;9.40;;;3.92;;
48526;SDS011;34317;51.660;5.824;2024-02-21T04:13:39;11.13;;;4.45;;
48526;SDS011;34317;51.660;5.824;2024-02-21T04:16:07;12.10;;;4.20;;
48526;SDS011;34317;51.660;5.824;2024-02-21T04:18:34;12.20;;;4.35;;
48526;SDS011;34317;51.660;5.824;2024-02-21T04:21:01;8.57;;;4.15;;
48526;SDS011;34317;51.660;5.824;2024-02-21T04:23:29;10.10;;;4.32;;
48526;SDS011;34317;51.660;5.824;2024-02-21T04:25:56;10.23;;;4.28;;
48526;SDS011;34317;51.660;5.824;2024-02-21T04:28:24;10.38;;;4.35;;
48526;SDS011;34317;51.660;5.824;2024-02-21T04:30:51;11.63;;;4.47;;
48526;SDS011;34317;51.660;5.824;2024-02-21T04:33:18;11.88;;;4.78;;
48526;SDS011;34317;51.660;5.824;2024-02-21T04:35:46;10.15;;;4.75;;
48526;SDS011;34317;51.660;5.824;2024-02-21T04:38:13;11.70;;;4.90;;
48526;SDS011;34317;51.660;5.824;2024-02-21T04:40:41;11.18;;;4.38;;
48526;SDS011;34317;51.660;5.824;2024-02-21T04:43:09;12.15;;;4.30;;
48526;SDS011;34317;51.660;5.824;2024-02-21T04:45:36;11.30;;;4.70;;
48526;SDS011;34317;51.660;5.824;2024-02-21T04:48:03;8.95;;;4.50;;
48526;SDS011;34317;51.660;5.824;2024-02-21T04:50:31;13.68;;;4.47;;
48526;SDS011;34317;51.660;5.824;2024-02-21T04:52:59;9.43;;;4.38;;
48526;SDS011;34317;51.660;5.824;2024-02-21T04:55:26;12.50;;;4.72;;
48526;SDS011;34317;51.660;5.824;2024-02-21T04:57:53;9.32;;;4.00;;
48526;SDS011;34317;51.660;5.824;2024-02-21T05:00:20;10.82;;;4.70;;
48526;SDS011;34317;51.660;5.824;2024-02-21T05:02:48;11.25;;;5.15;;
48526;SDS011;34317;51.660;5.824;2024-02-21T05:05:15;11.38;;;4.78;;
48526;SDS011;34317;51.660;5.824;2024-02-21T05:07:44;14.65;;;4.88;;
48526;SDS011;34317;51.660;5.824;2024-02-21T05:10:11;12.20;;;5.20;;
48526;SDS011;34317;51.660;5.824;2024-02-21T05:12:38;11.90;;;5.90;;
48526;SDS011;34317;51.660;5.824;2024-02-21T05:15:06;13.77;;;6.00;;
48526;SDS011;34317;51.660;5.824;2024-02-21T05:17:33;12.15;;;5.75;;
48526;SDS011;34317;51.660;5.824;2024-02-21T05:20:01;15.00;;;6.35;;
48526;SDS011;34317;51.660;5.824;2024-02-21T05:22:29;11.85;;;6.13;;
48526;SDS011;34317;51.660;5.824;2024-02-21T05:24:56;15.77;;;6.68;;
48526;SDS011;34317;51.660;5.824;2024-02-21T05:27:23;16.13;;;6.45;;
48526;SDS011;34317;51.660;5.824;2024-02-21T05:29:51;15.35;;;6.40;;
48526;SDS011;34317;51.660;5.824;2024-02-21T05:32:18;15.98;;;6.47;;
48526;SDS011;34317;51.660;5.824;2024-02-21T05:34:48;15.32;;;6.47;;
48526;SDS011;34317;51.660;5.824;2024-02-21T05:37:16;17.00;;;6.47;;
48526;SDS011;34317;51.660;5.824;2024-02-21T05:39:44;13.32;;;5.90;;
48526;SDS011;34317;51.660;5.824;2024-02-21T05:42:11;13.98;;;5.63;;
48526;SDS011;34317;51.660;5.824;2024-02-21T05:44:38;14.40;;;5.82;;
48526;SDS011;34317;51.660;5.824;2024-02-21T05:47:06;15.48;;;6.07;;
48526;SDS011;34317;51.660;5.824;2024-02-21T05:49:37;15.40;;;5.80;;
48526;SDS011;34317;51.660;5.824;2024-02-21T05:52:05;13.52;;;5.75;;
48526;SDS011;34317;51.660;5.824;2024-02-21T05:54:33;13.75;;;5.93;;
48526;SDS011;34317;51.660;5.824;2024-02-21T05:57:00;14.10;;;6.25;;
48526;SDS011;34317;51.660;5.824;2024-02-21T05:59:28;14.13;;;5.95;;
48526;SDS011;34317;51.660;5.824;2024-02-21T06:01:56;16.55;;;6.20;;
48526;SDS011;34317;51.660;5.824;2024-02-21T06:04:25;13.77;;;6.20;;
48526;SDS011;34317;51.660;5.824;2024-02-21T06:06:53;11.70;;;6.18;;
48526;SDS011;34317;51.660;5.824;2024-02-21T06:09:20;16.08;;;6.80;;
48526;SDS011;34317;51.660;5.824;2024-02-21T06:11:48;12.65;;;6.40;;
48526;SDS011;34317;51.660;5.824;2024-02-21T06:14:16;15.02;;;6.20;;
48526;SDS011;34317;51.660;5.824;2024-02-21T06:16:44;13.68;;;6.32;;
48526;SDS011;34317;51.660;5.824;2024-02-21T06:19:12;15.70;;;5.90;;
48526;SDS011;34317;51.660;5.824;2024-02-21T06:21:40;14.70;;;6.60;;
48526;SDS011;34317;51.660;5.824;2024-02-21T06:24:09;15.57;;;5.72;;
48526;SDS011;34317;51.660;5.824;2024-02-21T06:26:38;12.88;;;4.53;;
48526;SDS011;34317;51.660;5.824;2024-02-21T06:29:08;10.27;;;4.82;;
48526;SDS011;34317;51.660;5.824;2024-02-21T06:31:37;10.23;;;4.07;;
48526;SDS011;34317;51.660;5.824;2024-02-21T06:34:04;10.88;;;4.50;;
48526;SDS011;34317;51.660;5.824;2024-02-21T06:36:33;11.63;;;4.13;;
48526;SDS011;34317;51.660;5.824;2024-02-21T06:39:00;10.25;;;4.60;;
48526;SDS011;34317;51.660;5.824;2024-02-21T06:41:28;11.13;;;4.25;;
48526;SDS011;34317;51.660;5.824;2024-02-21T06:43:57;10.18;;;4.68;;
48526;SDS011;34317;51.660;5.824;2024-02-21T06:46:25;12.40;;;4.40;;
48526;SDS011;34317;51.660;5.824;2024-02-21T06:48:56;10.23;;;4.40;;
48526;SDS011;34317;51.660;5.824;2024-02-21T06:51:24;8.00;;;4.30;;
48526;SDS011;34317;51.660;5.824;2024-02-21T06:53:57;11.00;;;4.45;;
48526;SDS011;34317;51.660;5.824;2024-02-21T06:56:24;10.15;;;4.32;;
48526;SDS011;34317;51.660;5.824;2024-02-21T07:02:16;8.73;;;3.92;;
48526;SDS011;34317;51.660;5.824;2024-02-21T07:04:45;10.05;;;4.03;;
48526;SDS011;34317;51.660;5.824;2024-02-21T07:07:13;11.57;;;3.80;;
48526;SDS011;34317;51.660;5.824;2024-02-21T07:09:41;9.57;;;4.00;;
48526;SDS011;34317;51.660;5.824;2024-02-21T07:12:09;9.30;;;3.70;;
48526;SDS011;34317;51.660;5.824;2024-02-21T07:14:37;12.00;;;4.10;;
48526;SDS011;34317;51.660;5.824;2024-02-21T07:17:06;11.88;;;4.32;;
48526;SDS011;34317;51.660;5.824;2024-02-21T07:19:39;15.43;;;4.35;;
48526;SDS011;34317;51.660;5.824;2024-02-21T07:22:07;9.38;;;4.18;;
48526;SDS011;34317;51.660;5.824;2024-02-21T07:24:45;9.48;;;3.88;;
48526;SDS011;34317;51.660;5.824;2024-02-21T07:27:15;11.07;;;4.30;;
48526;SDS011;34317;51.660;5.824;2024-02-21T07:29:44;9.35;;;4.50;;
48526;SDS011;34317;51.660;5.824;2024-02-21T10:50:31;7.05;;;2.83;;
48526;SDS011;34317;51.660;5.824;2024-02-21T10:53:07;4.88;;;2.90;;
48526;SDS011;34317;51.660;5.824;2024-02-21T10:55:45;5.28;;;2.90;;
48526;SDS011;34317;51.660;5.824;2024-02-21T10:58:25;7.82;;;3.38;;
48526;SDS011;34317;51.660;5.824;2024-02-21T11:01:04;8.93;;;3.75;;
48526;SDS011;34317;51.660;5.824;2024-02-21T11:03:33;7.30;;;3.13;;
48526;SDS011;34317;51.660;5.824;2024-02-21T11:06:05;9.45;;;3.45;;
48526;SDS011;34317;51.660;5.824;2024-02-21T11:08:35;7.70;;;3.13;;
48526;SDS011;34317;51.660;5.824;2024-02-21T11:11:04;6.32;;;2.97;;
48526;SDS011;34317;51.660;5.824;2024-02-21T11:13:35;7.35;;;3.13;;
48526;SDS011;34317;51.660;5.824;2024-02-21T11:16:10;6.47;;;3.15;;
48526;SDS011;34317;51.660;5.824;2024-02-21T11:19:21;7.32;;;3.13;;
48526;SDS011;34317;51.660;5.824;2024-02-21T11:21:52;9.82;;;3.15;;
48526;SDS011;34317;51.660;5.824;2024-02-21T11:24:33;7.05;;;2.97;;
48526;SDS011;34317;51.660;5.824;2024-02-21T11:27:12;5.30;;;2.53;;
48526;SDS011;34317;51.660;5.824;2024-02-21T11:29:48;7.78;;;2.83;;
48526;SDS011;34317;51.660;5.824;2024-02-21T11:40:44;6.85;;;2.70;;
48526;SDS011;34317;51.660;5.824;2024-02-21T11:43:14;6.00;;;2.80;;
48526;SDS011;34317;51.660;5.824;2024-02-21T11:45:44;4.88;;;2.55;;
48526;SDS011;34317;51.660;5.824;2024-02-21T11:48:11;8.15;;;2.60;;
48526;SDS011;34317;51.660;5.824;2024-02-21T11:50:39;5.22;;;2.65;;
48526;SDS011;34317;51.660;5.824;2024-02-21T11:53:07;7.13;;;2.88;;
48526;SDS011;34317;51.660;5.824;2024-02-21T11:55:35;7.68;;;3.00;;
48526;SDS011;34317;51.660;5.824;2024-02-21T11:58:02;8.73;;;2.75;;
48526;SDS011;34317;51.660;5.824;2024-02-21T12:00:30;5.22;;;2.55;;
48526;SDS011;34317;51.660;5.824;2024-02-21T12:02:57;8.55;;;2.70;;
48526;SDS011;34317;51.660;5.824;2024-02-21T12:05:29;5.43;;;2.60;;
48526;SDS011;34317;51.660;5.824;2024-02-21T12:07:58;6.25;;;2.42;;
48526;SDS011;34317;51.660;5.824;2024-02-21T12:10:26;9.85;;;2.70;;
48526;SDS011;34317;51.660;5.824;2024-02-21T12:13:09;5.80;;;2.95;;
48526;SDS011;34317;51.660;5.824;2024-02-21T12:15:40;9.35;;;2.60;;
48526;SDS011;34317;51.660;5.824;2024-02-21T12:18:07;6.25;;;2.78;;
48526;SDS011;34317;51.660;5.824;2024-02-21T12:20:37;6.55;;;2.78;;
48526;SDS011;34317;51.660;5.824;2024-02-21T12:23:08;4.47;;;2.20;;
48526;SDS011;34317;51.660;5.824;2024-02-21T12:25:36;8.65;;;3.17;;
48526;SDS011;34317;51.660;5.824;2024-02-21T12:28:03;7.05;;;2.42;;
48526;SDS011;34317;51.660;5.824;2024-02-21T12:30:31;9.65;;;2.75;;
48526;SDS011;34317;51.660;5.824;2024-02-21T12:33:00;6.05;;;2.83;;
48526;SDS011;34317;51.660;5.824;2024-02-21T12:35:28;6.50;;;2.78;;
48526;SDS011;34317;51.660;5.824;2024-02-21T12:37:55;9.88;;;2.38;;
48526;SDS011;34317;51.660;5.824;2024-02-21T12:40:23;7.35;;;2.50;;
48526;SDS011;34317;51.660;5.824;2024-02-21T12:42:51;7.50;;;2.67;;
48526;SDS011;34317;51.660;5.824;2024-02-21T12:45:19;4.88;;;2.30;;
48526;SDS011;34317;51.660;5.824;2024-02-21T12:47:46;4.93;;;2.50;;
48526;SDS011;34317;51.660;5.824;2024-02-21T12:50:14;6.13;;;2.40;;
48526;SDS011;34317;51.660;5.824;2024-02-21T12:52:42;5.85;;;2.58;;
48526;SDS011;34317;51.660;5.824;2024-02-21T12:55:09;6.30;;;2.28;;
48526;SDS011;34317;51.660;5.824;2024-02-21T12:57:38;6.93;;;2.33;;
48526;SDS011;34317;51.660;5.824;2024-02-21T13:00:05;7.85;;;2.55;;
48526;SDS011;34317;51.660;5.824;2024-02-21T13:02:35;8.18;;;2.65;;
48526;SDS011;34317;51.660;5.824;2024-02-21T13:05:08;5.75;;;2.30;;
48526;SDS011;34317;51.660;5.824;2024-02-21T13:07:35;5.22;;;2.50;;
48526;SDS011;34317;51.660;5.824;2024-02-21T13:10:03;7.45;;;2.67;;
48526;SDS011;34317;51.660;5.824;2024-02-21T13:12:32;8.85;;;2.30;;
48526;SDS011;34317;51.660;5.824;2024-02-21T13:14:59;5.45;;;2.20;;
48526;SDS011;34317;51.660;5.824;2024-02-21T13:17:26;6.38;;;2.20;;
48526;SDS011;34317;51.660;5.824;2024-02-21T13:19:57;5.07;;;2.30;;
48526;SDS011;34317;51.660;5.824;2024-02-21T13:22:25;7.13;;;2.70;;
48526;SDS011;34317;51.660;5.824;2024-02-21T13:24:53;6.38;;;2.85;;
48526;SDS011;34317;51.660;5.824;2024-02-21T13:27:24;5.93;;;2.35;;
48526;SDS011;34317;51.660;5.824;2024-02-21T13:29:51;5.78;;;2.50;;
48526;SDS011;34317;51.660;5.824;2024-02-21T13:32:19;7.30;;;2.50;;
48526;SDS011;34317;51.660;5.824;2024-02-21T13:34:47;6.72;;;2.40;;
48526;SDS011;34317;51.660;5.824;2024-02-21T13:37:15;5.75;;;2.22;;
48526;SDS011;34317;51.660;5.824;2024-02-21T13:39:43;6.80;;;2.47;;
48526;SDS011;34317;51.660;5.824;2024-02-21T13:42:11;5.47;;;2.40;;
48526;SDS011;34317;51.660;5.824;2024-02-21T13:44:40;6.75;;;2.55;;
48526;SDS011;34317;51.660;5.824;2024-02-21T13:47:07;5.43;;;2.38;;
48526;SDS011;34317;51.660;5.824;2024-02-21T13:49:35;4.82;;;2.10;;
48526;SDS011;34317;51.660;5.824;2024-02-21T13:52:03;6.95;;;2.20;;
48526;SDS011;34317;51.660;5.824;2024-02-21T13:54:30;5.28;;;2.17;;
48526;SDS011;34317;51.660;5.824;2024-02-21T13:56:58;5.95;;;2.10;;
48526;SDS011;34317;51.660;5.824;2024-02-21T13:59:25;6.82;;;1.88;;
48526;SDS011;34317;51.660;5.824;2024-02-21T14:01:53;6.10;;;2.10;;
48526;SDS011;34317;51.660;5.824;2024-02-21T14:04:21;3.50;;;1.70;;
48526;SDS011;34317;51.660;5.824;2024-02-21T14:06:48;5.68;;;1.92;;
48526;SDS011;34317;51.660;5.824;2024-02-21T14:09:16;4.93;;;2.03;;
48526;SDS011;34317;51.660;5.824;2024-02-21T14:11:43;3.97;;;1.80;;
48526;SDS011;34317;51.660;5.824;2024-02-21T14:14:12;3.47;;;1.80;;
48526;SDS011;34317;51.660;5.824;2024-02-21T14:16:42;4.18;;;1.75;;
48526;SDS011;34317;51.660;5.824;2024-02-21T14:19:09;5.05;;;1.80;;
48526;SDS011;34317;51.660;5.824;2024-02-21T14:21:38;3.80;;;1.80;;
48526;SDS011;34317;51.660;5.824;2024-02-21T14:24:06;4.13;;;1.80;;
48526;SDS011;34317;51.660;5.824;2024-02-21T14:26:34;8.40;;;2.35;;
48526;SDS011;34317;51.660;5.824;2024-02-21T14:29:03;5.97;;;2.00;;
48526;SDS011;34317;51.660;5.824;2024-02-21T14:31:33;4.25;;;1.73;;
48526;SDS011;34317;51.660;5.824;2024-02-21T14:34:01;3.88;;;1.85;;
48526;SDS011;34317;51.660;5.824;2024-02-21T14:36:29;3.20;;;1.70;;
48526;SDS011;34317;51.660;5.824;2024-02-21T14:38:57;4.50;;;2.08;;
48526;SDS011;34317;51.660;5.824;2024-02-21T14:41:24;6.32;;;2.00;;
48526;SDS011;34317;51.660;5.824;2024-02-21T14:43:52;4.57;;;2.10;;
48526;SDS011;34317;51.660;5.824;2024-02-21T14:46:19;4.93;;;1.88;;
48526;SDS011;34317;51.660;5.824;2024-02-21T14:48:47;5.57;;;1.90;;
48526;SDS011;34317;51.660;5.824;2024-02-21T14:51:14;5.78;;;1.98;;
48526;SDS011;34317;51.660;5.824;2024-02-21T14:53:41;4.20;;;1.90;;
48526;SDS011;34317;51.660;5.824;2024-02-21T14:56:12;5.22;;;2.10;;
48526;SDS011;34317;51.660;5.824;2024-02-21T14:58:42;5.20;;;1.88;;
48526;SDS011;34317;51.660;5.824;2024-02-21T15:01:09;4.35;;;1.80;;
48526;SDS011;34317;51.660;5.824;2024-02-21T15:03:36;5.35;;;1.90;;
48526;SDS011;34317;51.660;5.824;2024-02-21T15:06:04;6.50;;;2.00;;
48526;SDS011;34317;51.660;5.824;2024-02-21T15:08:31;3.22;;;1.73;;
48526;SDS011;34317;51.660;5.824;2024-02-21T15:10:58;4.15;;;1.88;;
48526;SDS011;34317;51.660;5.824;2024-02-21T15:13:26;7.45;;;2.08;;
48526;SDS011;34317;51.660;5.824;2024-02-21T15:15:53;3.45;;;1.70;;
48526;SDS011;34317;51.660;5.824;2024-02-21T15:18:21;3.17;;;1.63;;
48526;SDS011;34317;51.660;5.824;2024-02-21T15:20:48;4.43;;;1.92;;
48526;SDS011;34317;51.660;5.824;2024-02-21T15:23:15;5.53;;;1.90;;
48526;SDS011;34317;51.660;5.824;2024-02-21T15:25:44;3.45;;;1.58;;
48526;SDS011;34317;51.660;5.824;2024-02-21T15:28:12;5.10;;;1.88;;
48526;SDS011;34317;51.660;5.824;2024-02-21T15:30:39;5.35;;;1.65;;
48526;SDS011;34317;51.660;5.824;2024-02-21T15:33:07;5.60;;;1.90;;
48526;SDS011;34317;51.660;5.824;2024-02-21T15:35:34;8.77;;;2.03;;
48526;SDS011;34317;51.660;5.824;2024-02-21T15:38:01;3.80;;;2.00;;
48526;SDS011;34317;51.660;5.824;2024-02-21T15:40:30;3.20;;;1.40;;
48526;SDS011;34317;51.660;5.824;2024-02-21T15:42:57;4.88;;;1.90;;
48526;SDS011;34317;51.660;5.824;2024-02-21T15:45:25;5.07;;;1.67;;
48526;SDS011;34317;51.660;5.824;2024-02-21T15:47:52;5.22;;;1.75;;
48526;SDS011;34317;51.660;5.824;2024-02-21T15:50:21;6.10;;;1.65;;
48526;SDS011;34317;51.660;5.824;2024-02-21T15:52:48;8.13;;;1.85;;
48526;SDS011;34317;51.660;5.824;2024-02-21T15:55:16;6.10;;;2.08;;
48526;SDS011;34317;51.660;5.824;2024-02-21T15:57:44;4.20;;;1.85;;
48526;SDS011;34317;51.660;5.824;2024-02-21T16:00:11;6.30;;;2.15;;
48526;SDS011;34317;51.660;5.824;2024-02-21T16:02:40;4.30;;;1.98;;
48526;SDS011;34317;51.660;5.824;2024-02-21T16:05:10;4.75;;;1.70;;
48526;SDS011;34317;51.660;5.824;2024-02-21T16:07:38;4.13;;;1.80;;
48526;SDS011;34317;51.660;5.824;2024-02-21T16:10:06;3.17;;;1.90;;
48526;SDS011;34317;51.660;5.824;2024-02-21T16:12:34;3.85;;;1.88;;
48526;SDS011;34317;51.660;5.824;2024-02-21T16:15:01;4.35;;;1.95;;
48526;SDS011;34317;51.660;5.824;2024-02-21T16:17:29;4.90;;;2.13;;
48526;SDS011;34317;51.660;5.824;2024-02-21T16:19:57;10.27;;;2.95;;
48526;SDS011;34317;51.660;5.824;2024-02-21T16:22:24;6.72;;;3.00;;
48526;SDS011;34317;51.660;5.824;2024-02-21T16:24:52;3.90;;;2.30;;
48526;SDS011;34317;51.660;5.824;2024-02-21T16:27:21;7.63;;;2.40;;
48526;SDS011;34317;51.660;5.824;2024-02-21T16:29:48;4.38;;;2.13;;
48526;SDS011;34317;51.660;5.824;2024-02-21T16:32:16;5.40;;;2.42;;
48526;SDS011;34317;51.660;5.824;2024-02-21T16:34:44;6.07;;;2.33;;
48526;SDS011;34317;51.660;5.824;2024-02-21T16:37:11;5.18;;;2.25;;
48526;SDS011;34317;51.660;5.824;2024-02-21T16:39:40;7.00;;;2.55;;
48526;SDS011;34317;51.660;5.824;2024-02-21T16:42:07;3.50;;;2.25;;
48526;SDS011;34317;51.660;5.824;2024-02-21T16:44:34;5.65;;;2.65;;
48526;SDS011;34317;51.660;5.824;2024-02-21T16:47:03;7.47;;;2.45;;
48526;SDS011;34317;51.660;5.824;2024-02-21T16:49:31;5.07;;;2.60;;
48526;SDS011;34317;51.660;5.824;2024-02-21T16:52:03;3.65;;;2.35;;
48526;SDS011;34317;51.660;5.824;2024-02-21T16:54:32;6.80;;;2.28;;
48526;SDS011;34317;51.660;5.824;2024-02-21T16:57:00;4.35;;;2.38;;
48526;SDS011;34317;51.660;5.824;2024-02-21T16:59:27;3.88;;;2.25;;
48526;SDS011;34317;51.660;5.824;2024-02-21T17:01:55;4.30;;;2.20;;
48526;SDS011;34317;51.660;5.824;2024-02-21T17:04:23;5.85;;;1.98;;
48526;SDS011;34317;51.660;5.824;2024-02-21T17:06:50;5.07;;;2.13;;
48526;SDS011;34317;51.660;5.824;2024-02-21T17:09:18;8.48;;;2.90;;
48526;SDS011;34317;51.660;5.824;2024-02-21T17:11:45;4.47;;;2.15;;
48526;SDS011;34317;51.660;5.824;2024-02-21T17:14:13;9.95;;;2.50;;
48526;SDS011;34317;51.660;5.824;2024-02-21T17:16:41;4.65;;;2.20;;
48526;SDS011;34317;51.660;5.824;2024-02-21T17:19:09;10.35;;;2.42;;
48526;SDS011;34317;51.660;5.824;2024-02-21T17:24:44;5.32;;;2.25;;
48526;SDS011;34317;51.660;5.824;2024-02-21T17:27:12;5.80;;;2.05;;
48526;SDS011;34317;51.660;5.824;2024-02-21T17:29:40;6.63;;;2.08;;
48526;SDS011;34317;51.660;5.824;2024-02-21T17:32:07;4.72;;;2.20;;
48526;SDS011;34317;51.660;5.824;2024-02-21T17:34:35;5.90;;;1.85;;
48526;SDS011;34317;51.660;5.824;2024-02-21T17:37:03;5.60;;;2.08;;
48526;SDS011;34317;51.660;5.824;2024-02-21T17:39:31;7.40;;;2.00;;
48526;SDS011;34317;51.660;5.824;2024-02-21T17:42:02;5.88;;;2.05;;
48526;SDS011;34317;51.660;5.824;2024-02-21T17:44:30;5.05;;;2.00;;
48526;SDS011;34317;51.660;5.824;2024-02-21T17:46:59;4.82;;;2.20;;
48526;SDS011;34317;51.660;5.824;2024-02-21T17:49:26;5.05;;;2.20;;
48526;SDS011;34317;51.660;5.824;2024-02-21T17:51:54;6.13;;;2.10;;
48526;SDS011;34317;51.660;5.824;2024-02-21T17:54:22;5.78;;;2.20;;
48526;SDS011;34317;51.660;5.824;2024-02-21T17:59:27;6.85;;;2.30;;
48526;SDS011;34317;51.660;5.824;2024-02-21T18:01:55;4.85;;;2.22;;
48526;SDS011;34317;51.660;5.824;2024-02-21T18:04:23;5.75;;;2.40;;
48526;SDS011;34317;51.660;5.824;2024-02-21T18:06:50;5.63;;;2.17;;
48526;SDS011;34317;51.660;5.824;2024-02-21T18:09:17;6.88;;;2.50;;
48526;SDS011;34317;51.660;5.824;2024-02-21T18:11:45;5.97;;;2.25;;
48526;SDS011;34317;51.660;5.824;2024-02-21T18:14:12;6.38;;;3.35;;
48526;SDS011;34317;51.660;5.824;2024-02-21T18:16:39;7.50;;;3.70;;
48526;SDS011;34317;51.660;5.824;2024-02-21T18:19:09;6.88;;;3.35;;
48526;SDS011;34317;51.660;5.824;2024-02-21T18:21:36;9.40;;;3.50;;
48526;SDS011;34317;51.660;5.824;2024-02-21T18:24:04;6.22;;;3.38;;